Almond, North Carolina
Current Conditions -  °F | °C
As of 6:15 PM on Thursday 23 Oct 2014 (Local Time) from KRHP Reporting Station
Clear Clear  
Wind Chill: 60°   Ceiling: Unl
Heat Index: 60°   Visibility: 10mi
Dew Point: 49°   Wind: 3mph
Humidity: 66%   Direction: 280°W
Pressure: 30.05"   Gusts: NA
Location:  35.37°N, 83.57°W
Report Text: KRHP 232215Z AUTO 28003KT 10SM CLR 16/09 A3005 RMK AO2 T01560092
Loading
Personal Weather Stations






























Interactive Weather Map New forecast layout! Learn more

10-Day Weather Forecast

Advertisements
Track Severe Weather on mobile